Time;durP1;ratioP1;P1;durP2;ratioP2;P2;SDS_P1;SDS_P2;PMS_P1;PMS_P2;Temp;Humidity;BMP_temperature;BMP_pressure;BME280_temperature;BME280_humidity;BME280_pressure;Samples;Min_cycle;Max_cycle;Signal;HPM_P1;HPM_P2
2023/04/04 00:00:43;;;;;;;;;8.00;4.00;;;;;;;;6335580;22;47143;-85
2023/04/04 00:03:08;;;;;;;;;2.67;2.67;;;;;;;;6336500;22;45216;-85
2023/04/04 00:05:34;;;;;;;;;5.00;3.33;;;;;;;;6336172;22;45202;-84
2023/04/04 00:08:00;;;;;;;;;3.25;3.25;;;;;;;;6307974;22;45444;-85
2023/04/04 00:10:26;;;;;;;;;7.50;5.00;;;;;;;;6336121;22;47529;-86
2023/04/04 00:12:51;;;;;;;;;5.00;5.00;;;;;;;;6335890;22;45248;-86
2023/04/04 00:15:17;;;;;;;;;8.00;4.00;;;;;;;;6313511;22;45279;-86
2023/04/04 00:17:42;;;;;;;;;4.67;2.33;;;;;;;;6336674;22;45497;-86
2023/04/04 00:20:08;;;;;;;;;8.00;5.67;;;;;;;;6336039;22;45221;-85
2023/04/04 00:22:33;;;;;;;;;5.00;4.00;;;;;;;;6335570;22;45281;-86
2023/04/04 00:24:58;;;;;;;;;4.50;4.25;;;;;;;;6336449;22;45398;-84
2023/04/04 00:27:23;;;;;;;;;6.00;4.00;;;;;;;;6335772;22;45220;-83
2023/04/04 00:29:48;;;;;;;;;4.33;4.00;;;;;;;;6335707;22;46374;-84
2023/04/04 00:32:15;;;;;;;;;2.67;2.67;;;;;;;;6334076;22;45317;-84
2023/04/04 00:34:40;;;;;;;;;6.00;4.00;;;;;;;;6335553;22;45247;-83
2023/04/04 00:37:06;;;;;;;;;4.33;3.33;;;;;;;;6336159;22;45250;-84
2023/04/04 00:39:32;;;;;;;;;3.00;3.00;;;;;;;;6335389;22;45261;-83
2023/04/04 00:41:57;;;;;;;;;5.00;4.00;;;;;;;;6335396;22;45200;-84
2023/04/04 00:44:22;;;;;;;;;5.25;2.00;;;;;;;;6335988;22;45268;-83
2023/04/04 00:46:48;;;;;;;;;9.50;6.75;;;;;;;;6336067;22;45220;-84
2023/04/04 00:49:13;;;;;;;;;9.33;6.00;;;;;;;;6335889;22;45337;-84
2023/04/04 00:51:38;;;;;;;;;4.67;4.67;;;;;;;;6335582;22;45372;-84
2023/04/04 00:54:03;;;;;;;;;5.00;4.67;;;;;;;;6336222;22;45165;-84
2023/04/04 00:56:29;;;;;;;;;5.00;5.00;;;;;;;;6337507;22;45445;-84
2023/04/04 00:58:55;;;;;;;;;7.75;5.00;;;;;;;;6336881;22;45415;-85
2023/04/04 01:01:21;;;;;;;;;7.75;6.00;;;;;;;;6336982;22;45450;-85
2023/04/04 01:03:46;;;;;;;;;7.00;4.75;;;;;;;;6337124;22;45249;-84
2023/04/04 01:06:12;;;;;;;;;8.75;5.75;;;;;;;;6337566;22;45319;-83
2023/04/04 01:08:38;;;;;;;;;6.75;6.00;;;;;;;;6336950;22;46293;-83
2023/04/04 01:11:05;;;;;;;;;7.00;4.75;;;;;;;;6337261;22;45322;-84
2023/04/04 01:13:30;;;;;;;;;6.50;3.00;;;;;;;;6337262;22;45225;-83
2023/04/04 01:15:58;;;;;;;;;6.50;5.25;;;;;;;;6337587;22;45290;-84
2023/04/04 01:18:24;;;;;;;;;8.00;5.00;;;;;;;;6336987;22;46533;-83
2023/04/04 01:20:56;;;;;;;;;4.00;4.00;;;;;;;;6335230;22;45922;-83
2023/04/04 01:23:23;;;;;;;;;4.25;3.25;;;;;;;;6337732;22;45220;-84
2023/04/04 01:25:48;;;;;;;;;11.00;5.00;;;;;;;;6337615;22;45394;-84
2023/04/04 01:28:14;;;;;;;;;5.33;4.00;;;;;;;;6336631;22;45279;-83
2023/04/04 01:30:40;;;;;;;;;6.00;4.00;;;;;;;;6336561;22;45283;-84
2023/04/04 01:33:12;;;;;;;;;4.75;4.75;;;;;;;;6337433;22;45543;-84
2023/04/04 01:35:37;;;;;;;;;4.00;4.00;;;;;;;;6337164;22;45281;-84
2023/04/04 01:38:26;;;;;;;;;2.67;2.67;;;;;;;;6337257;22;46202;-83
2023/04/04 01:40:53;;;;;;;;;5.00;5.00;;;;;;;;6319713;22;45471;-84
2023/04/04 01:43:19;;;;;;;;;3.50;3.50;;;;;;;;6335425;22;45293;-84
2023/04/04 01:45:45;;;;;;;;;4.00;4.00;;;;;;;;6337452;22;45243;-84
2023/04/04 01:48:10;;;;;;;;;5.00;4.00;;;;;;;;6336636;22;46509;-84
2023/04/04 01:50:35;;;;;;;;;4.25;4.25;;;;;;;;6336327;22;45313;-84
2023/04/04 01:53:01;;;;;;;;;6.50;4.50;;;;;;;;6335591;22;45321;-84
2023/04/04 01:55:26;;;;;;;;;8.50;4.25;;;;;;;;6336950;22;45186;-84
2023/04/04 01:57:52;;;;;;;;;8.75;6.00;;;;;;;;6337202;22;47335;-84
2023/04/04 02:00:17;;;;;;;;;4.33;4.00;;;;;;;;6344663;22;45327;-84
2023/04/04 02:02:42;;;;;;;;;8.75;5.25;;;;;;;;6361110;22;45144;-84
2023/04/04 02:05:07;;;;;;;;;10.00;5.25;;;;;;;;6361918;22;45133;-83
2023/04/04 02:07:33;;;;;;;;;6.00;5.67;;;;;;;;6349994;22;45351;-83
2023/04/04 02:09:58;;;;;;;;;8.00;5.00;;;;;;;;6337474;22;45316;-84
2023/04/04 02:12:23;;;;;;;;;6.75;6.25;;;;;;;;6337093;22;45181;-84
2023/04/04 02:14:48;;;;;;;;;8.67;6.67;;;;;;;;6336769;22;45450;-84
2023/04/04 02:17:14;;;;;;;;;8.67;5.00;;;;;;;;6336415;22;46289;-84
2023/04/04 02:19:39;;;;;;;;;5.67;2.00;;;;;;;;6336534;22;45236;-84
2023/04/04 02:22:05;;;;;;;;;9.50;8.00;;;;;;;;6334952;22;45317;-84
2023/04/04 02:24:30;;;;;;;;;11.00;6.00;;;;;;;;6334844;22;45324;-84
2023/04/04 02:26:55;;;;;;;;;5.67;5.67;;;;;;;;6334994;22;46327;-84
2023/04/04 02:29:21;;;;;;;;;5.33;5.33;;;;;;;;6336507;22;45272;-85
2023/04/04 02:31:48;;;;;;;;;8.00;7.50;;;;;;;;6336596;22;45323;-84
2023/04/04 02:34:13;;;;;;;;;9.33;5.00;;;;;;;;6337018;22;45240;-83
2023/04/04 02:36:38;;;;;;;;;8.00;4.00;;;;;;;;6336925;22;46158;-83
2023/04/04 02:39:04;;;;;;;;;4.33;4.33;;;;;;;;6336075;22;45280;-84
2023/04/04 02:41:30;;;;;;;;;5.00;4.00;;;;;;;;6336836;22;45237;-84
2023/04/04 02:43:55;;;;;;;;;12.50;4.00;;;;;;;;6335091;22;45241;-84
2023/04/04 02:46:20;;;;;;;;;4.67;4.00;;;;;;;;6334855;22;47127;-84
2023/04/04 02:48:45;;;;;;;;;6.00;4.75;;;;;;;;6336625;22;45275;-84
2023/04/04 02:51:11;;;;;;;;;4.00;4.00;;;;;;;;6337231;22;45282;-83
2023/04/04 02:53:36;;;;;;;;;4.25;4.25;;;;;;;;6335996;22;45273;-84
2023/04/04 02:56:02;;;;;;;;;5.67;2.00;;;;;;;;6336380;22;46332;-84
2023/04/04 02:58:27;;;;;;;;;4.75;2.50;;;;;;;;6334684;22;45285;-84
2023/04/04 03:00:53;;;;;;;;;5.00;4.00;;;;;;;;6337252;22;45158;-84
2023/04/04 03:03:19;;;;;;;;;5.50;2.00;;;;;;;;6336759;22;45406;-84
2023/04/04 03:05:44;;;;;;;;;6.00;5.33;;;;;;;;6336861;22;46336;-84
2023/04/04 03:08:09;;;;;;;;;6.00;4.00;;;;;;;;6337339;22;45268;-85
2023/04/04 03:10:37;;;;;;;;;5.50;4.00;;;;;;;;6336406;22;45193;-84
2023/04/04 03:13:02;;;;;;;;;2.00;2.00;;;;;;;;6336543;22;45273;-84
2023/04/04 03:15:27;;;;;;;;;7.25;4.00;;;;;;;;6334895;22;47157;-83
2023/04/04 03:17:53;;;;;;;;;5.00;5.00;;;;;;;;6336880;22;45335;-84
2023/04/04 03:20:18;;;;;;;;;9.33;5.67;;;;;;;;6337004;22;45262;-84
2023/04/04 03:22:43;;;;;;;;;3.00;3.00;;;;;;;;6334503;22;45273;-84
2023/04/04 03:25:09;;;;;;;;;5.00;2.67;;;;;;;;6336880;22;45219;-83
2023/04/04 03:27:34;;;;;;;;;4.00;4.00;;;;;;;;6336296;22;45265;-84
2023/04/04 03:29:59;;;;;;;;;3.33;3.33;;;;;;;;6334929;22;45305;-85
2023/04/04 03:32:25;;;;;;;;;5.75;4.25;;;;;;;;6336638;22;45231;-84
2023/04/04 03:34:51;;;;;;;;;7.50;4.75;;;;;;;;6336657;22;45271;-84
2023/04/04 03:37:16;;;;;;;;;4.00;4.00;;;;;;;;6335849;22;45559;-84
2023/04/04 03:39:41;;;;;;;;;7.75;4.75;;;;;;;;6334774;22;45271;-84
2023/04/04 03:42:06;;;;;;;;;4.67;4.00;;;;;;;;6336766;22;45117;-83
2023/04/04 03:44:32;;;;;;;;;8.00;4.00;;;;;;;;6336206;22;45482;-84
2023/04/04 03:46:57;;;;;;;;;7.00;5.00;;;;;;;;6336778;22;45131;-83
2023/04/04 03:49:22;;;;;;;;;4.33;4.00;;;;;;;;6337200;22;45046;-84
2023/04/04 03:51:47;;;;;;;;;5.67;4.67;;;;;;;;6337818;22;45378;-84
2023/04/04 03:54:12;;;;;;;;;7.00;2.00;;;;;;;;6342788;22;46140;-83
2023/04/04 03:56:38;;;;;;;;;6.00;4.67;;;;;;;;6356018;22;45122;-84
2023/04/04 03:59:03;;;;;;;;;2.00;2.00;;;;;;;;6359449;22;45232;-84
2023/04/04 04:01:28;;;;;;;;;7.67;4.33;;;;;;;;6358978;22;44717;-84
2023/04/04 04:03:53;;;;;;;;;5.67;2.00;;;;;;;;6343264;22;45347;-84
2023/04/04 04:06:18;;;;;;;;;5.00;5.00;;;;;;;;6335983;22;45223;-84
2023/04/04 04:08:44;;;;;;;;;8.00;5.00;;;;;;;;6336528;22;45197;-84
2023/04/04 04:11:09;;;;;;;;;4.50;2.00;;;;;;;;6336589;22;45482;-84
2023/04/04 04:13:37;;;;;;;;;4.67;4.67;;;;;;;;6336182;22;45247;-83
2023/04/04 04:16:03;;;;;;;;;8.25;4.50;;;;;;;;6335884;22;45365;-84
2023/04/04 04:18:28;;;;;;;;;6.75;4.00;;;;;;;;6335975;22;45289;-84
2023/04/04 04:20:58;;;;;;;;;9.00;3.33;;;;;;;;6335916;22;45331;-84
2023/04/04 04:23:23;;;;;;;;;8.75;2.00;;;;;;;;6335446;22;45302;-84
2023/04/04 04:25:48;;;;;;;;;4.00;3.33;;;;;;;;6336572;22;45198;-84
2023/04/04 04:28:14;;;;;;;;;7.00;4.00;;;;;;;;6336201;22;45255;-84
2023/04/04 04:30:39;;;;;;;;;2.00;2.00;;;;;;;;6337495;22;45410;-84
2023/04/04 04:33:04;;;;;;;;;5.00;5.00;;;;;;;;6336964;22;45268;-83
2023/04/04 04:35:30;;;;;;;;;3.75;2.00;;;;;;;;6335075;22;45235;-84
2023/04/04 04:37:55;;;;;;;;;7.33;4.33;;;;;;;;6337554;22;45726;-84
2023/04/04 04:40:20;;;;;;;;;5.00;4.00;;;;;;;;6335437;22;45380;-84
2023/04/04 04:42:46;;;;;;;;;2.75;2.50;;;;;;;;6336616;22;45435;-84
2023/04/04 04:45:11;;;;;;;;;7.00;4.00;;;;;;;;6335494;22;45200;-84
2023/04/04 04:47:36;;;;;;;;;7.75;3.00;;;;;;;;6336999;22;45304;-84
2023/04/04 04:50:03;;;;;;;;;11.00;3.00;;;;;;;;6336598;22;45217;-84
2023/04/04 04:52:30;;;;;;;;;2.50;2.00;;;;;;;;6335066;22;47423;-84
2023/04/04 04:54:55;;;;;;;;;9.25;4.00;;;;;;;;6336883;22;45266;-84
2023/04/04 04:57:20;;;;;;;;;4.00;4.00;;;;;;;;6337528;22;45258;-85
2023/04/04 04:59:46;;;;;;;;;4.00;4.00;;;;;;;;6336984;22;45219;-84
2023/04/04 05:02:11;;;;;;;;;2.50;2.50;;;;;;;;6336859;22;45345;-84
2023/04/04 05:04:36;;;;;;;;;4.67;2.67;;;;;;;;6335210;22;45236;-84
2023/04/04 05:07:01;;;;;;;;;11.00;4.67;;;;;;;;6337632;22;45313;-84
2023/04/04 05:09:27;;;;;;;;;5.75;4.25;;;;;;;;6336945;22;45129;-84
2023/04/04 05:14:55;;;;;;;;;5.00;3.00;;;;;;;;6337601;22;45302;-84
2023/04/04 05:17:22;;;;;;;;;6.75;4.50;;;;;;;;6337071;22;45227;-84
2023/04/04 05:19:47;;;;;;;;;6.00;4.00;;;;;;;;6336606;22;45171;-84
2023/04/04 05:22:12;;;;;;;;;4.00;4.00;;;;;;;;6336554;22;46241;-84
2023/04/04 05:24:38;;;;;;;;;6.67;4.00;;;;;;;;6335320;22;45165;-84
2023/04/04 05:27:03;;;;;;;;;7.25;4.00;;;;;;;;6336954;22;45093;-84
2023/04/04 05:29:28;;;;;;;;;10.33;4.00;;;;;;;;6337448;22;45152;-84
2023/04/04 05:31:54;;;;;;;;;5.00;5.00;;;;;;;;6336911;22;46248;-83
2023/04/04 05:34:19;;;;;;;;;4.25;4.25;;;;;;;;6336383;22;45323;-84
2023/04/04 05:36:45;;;;;;;;;2.00;2.00;;;;;;;;6337329;22;45606;-83
2023/04/04 05:39:10;;;;;;;;;5.00;5.00;;;;;;;;6336579;22;45262;-83
2023/04/04 05:41:36;;;;;;;;;4.67;2.00;;;;;;;;6335993;22;46180;-84
2023/04/04 05:44:01;;;;;;;;;8.00;4.75;;;;;;;;6336629;22;45310;-84
2023/04/04 05:46:27;;;;;;;;;4.50;3.00;;;;;;;;6336800;22;45303;-82
2023/04/04 05:48:52;;;;;;;;;7.00;5.00;;;;;;;;6334993;22;45314;-79
2023/04/04 05:51:17;;;;;;;;;4.00;2.00;;;;;;;;6335741;22;46106;-79
2023/04/04 05:53:44;;;;;;;;;6.33;6.33;;;;;;;;6337154;22;45326;-79
2023/04/04 05:56:10;;;;;;;;;7.50;4.00;;;;;;;;6336912;22;45314;-79
2023/04/04 05:58:35;;;;;;;;;6.00;4.50;;;;;;;;6336406;22;45393;-80
2023/04/04 06:01:02;;;;;;;;;7.00;4.00;;;;;;;;6336583;22;46220;-80
2023/04/04 06:03:27;;;;;;;;;5.50;2.00;;;;;;;;6335963;22;45791;-80
2023/04/04 06:05:53;;;;;;;;;6.75;3.50;;;;;;;;6336758;22;45271;-79
2023/04/04 06:08:18;;;;;;;;;6.00;4.25;;;;;;;;6337068;22;45383;-80
2023/04/04 06:10:43;;;;;;;;;4.67;4.00;;;;;;;;6336580;22;46346;-80
2023/04/04 06:13:08;;;;;;;;;2.00;2.00;;;;;;;;6336870;22;45335;-80
2023/04/04 06:15:33;;;;;;;;;4.00;4.00;;;;;;;;6336642;22;45238;-80
2023/04/04 06:17:59;;;;;;;;;7.67;4.67;;;;;;;;6336494;22;45414;-80
2023/04/04 06:20:24;;;;;;;;;4.25;4.00;;;;;;;;6336371;22;45146;-82
2023/04/04 06:22:49;;;;;;;;;4.67;3.33;;;;;;;;6336686;22;45228;-81
2023/04/04 06:25:15;;;;;;;;;7.00;5.67;;;;;;;;6336366;22;45331;-82
2023/04/04 06:27:40;;;;;;;;;9.25;4.00;;;;;;;;6335892;22;45232;-82
2023/04/04 06:30:06;;;;;;;;;7.67;5.00;;;;;;;;6336000;22;45220;-82
2023/04/04 06:32:32;;;;;;;;;7.00;4.25;;;;;;;;6336315;22;45245;-82
2023/04/04 06:34:57;;;;;;;;;6.00;4.00;;;;;;;;6336649;22;45584;-81
2023/04/04 06:37:23;;;;;;;;;4.00;3.33;;;;;;;;6336451;22;45456;-81
2023/04/04 06:39:48;;;;;;;;;7.00;2.00;;;;;;;;6336348;22;45330;-81
2023/04/04 06:42:13;;;;;;;;;3.00;2.00;;;;;;;;6336083;22;45244;-81
2023/04/04 06:44:38;;;;;;;;;7.33;5.00;;;;;;;;6337015;22;45201;-81
2023/04/04 06:47:03;;;;;;;;;7.00;5.00;;;;;;;;6336514;22;45324;-81
2023/04/04 06:49:29;;;;;;;;;5.67;4.00;;;;;;;;6336599;22;45419;-80
2023/04/04 06:51:54;;;;;;;;;7.00;4.67;;;;;;;;6336561;22;45446;-81
2023/04/04 06:54:19;;;;;;;;;7.00;7.00;;;;;;;;6336679;22;45293;-82
2023/04/04 06:56:44;;;;;;;;;5.00;4.00;;;;;;;;6336647;22;45236;-81
2023/04/04 06:59:11;;;;;;;;;5.67;4.67;;;;;;;;6336837;22;46246;-80
2023/04/04 07:01:36;;;;;;;;;5.00;4.00;;;;;;;;6335860;22;45705;-81
2023/04/04 07:04:01;;;;;;;;;8.00;4.00;;;;;;;;6336722;22;45262;-82
2023/04/04 07:06:28;;;;;;;;;4.75;4.00;;;;;;;;6336760;22;45099;-80
2023/04/04 07:08:53;;;;;;;;;4.50;2.00;;;;;;;;6336025;22;46120;-82
2023/04/04 07:11:19;;;;;;;;;11.00;4.00;;;;;;;;6336563;22;45295;-80
2023/04/04 07:13:44;;;;;;;;;11.00;4.50;;;;;;;;6336808;22;45140;-81
2023/04/04 07:16:10;;;;;;;;;7.33;5.00;;;;;;;;6336274;22;45383;-80
2023/04/04 07:18:35;;;;;;;;;4.75;4.00;;;;;;;;6336050;22;46361;-81
2023/04/04 07:21:01;;;;;;;;;6.33;4.00;;;;;;;;6336718;22;45204;-82
2023/04/04 07:23:26;;;;;;;;;5.00;4.00;;;;;;;;6336771;22;45246;-81
2023/04/04 07:25:52;;;;;;;;;4.00;4.00;;;;;;;;6335862;22;45347;-81
2023/04/04 07:28:17;;;;;;;;;2.00;2.00;;;;;;;;6336299;22;45592;-82
2023/04/04 07:30:42;;;;;;;;;5.00;4.00;;;;;;;;6334027;22;45333;-81
2023/04/04 07:33:07;;;;;;;;;8.33;2.00;;;;;;;;6332920;22;45335;-80
2023/04/04 07:35:33;;;;;;;;;4.00;4.00;;;;;;;;6335384;22;45308;-82
2023/04/04 07:37:58;;;;;;;;;7.00;5.00;;;;;;;;6333592;22;46034;-80
2023/04/04 07:40:24;;;;;;;;;8.00;5.00;;;;;;;;6335259;22;45311;-79
2023/04/04 07:42:50;;;;;;;;;2.50;2.50;;;;;;;;6334204;22;45332;-81
2023/04/04 07:45:16;;;;;;;;;7.75;4.00;;;;;;;;6334948;22;45404;-81
2023/04/04 07:47:44;;;;;;;;;4.25;4.00;;;;;;;;6335102;22;46398;-80
2023/04/04 07:50:10;;;;;;;;;7.25;2.50;;;;;;;;6334583;22;45253;-80
2023/04/04 07:52:36;;;;;;;;;4.50;2.00;;;;;;;;6335012;22;45255;-81
2023/04/04 07:55:02;;;;;;;;;7.75;4.00;;;;;;;;6335636;22;45497;-81
2023/04/04 07:57:27;;;;;;;;;7.25;1.25;;;;;;;;6334872;22;46544;-80
2023/04/04 07:59:52;;;;;;;;;4.00;4.00;;;;;;;;6334848;22;45259;-81
2023/04/04 08:02:17;;;;;;;;;5.67;4.00;;;;;;;;6335356;22;45273;-81
2023/04/04 08:04:43;;;;;;;;;4.67;3.33;;;;;;;;6334421;22;45248;-80
2023/04/04 08:07:08;;;;;;;;;5.67;4.00;;;;;;;;6334524;22;46243;-81
2023/04/04 08:09:35;;;;;;;;;8.00;4.00;;;;;;;;6335450;22;45349;-81
2023/04/04 08:12:01;;;;;;;;;4.00;4.00;;;;;;;;6334554;22;45371;-80
2023/04/04 08:14:26;;;;;;;;;6.50;5.00;;;;;;;;6335078;22;45344;-81
2023/04/04 08:16:51;;;;;;;;;5.75;4.50;;;;;;;;6334503;22;45388;-81
2023/04/04 08:19:17;;;;;;;;;7.50;5.25;;;;;;;;6334967;22;45190;-80
2023/04/04 08:21:43;;;;;;;;;7.00;5.67;;;;;;;;6335605;22;45352;-81
2023/04/04 08:24:08;;;;;;;;;8.00;5.50;;;;;;;;6332974;22;45269;-81
2023/04/04 08:26:33;;;;;;;;;7.00;5.00;;;;;;;;6334315;22;46474;-80
2023/04/04 08:28:59;;;;;;;;;2.67;2.67;;;;;;;;6332522;22;45522;-80
2023/04/04 08:31:24;;;;;;;;;4.00;4.00;;;;;;;;6334503;22;45377;-80
2023/04/04 08:33:49;;;;;;;;;12.00;5.00;;;;;;;;6334963;22;45347;-81
2023/04/04 08:36:15;;;;;;;;;5.75;4.00;;;;;;;;6334523;22;47046;-80
2023/04/04 08:38:40;;;;;;;;;6.25;4.75;;;;;;;;6333685;22;45346;-80
2023/04/04 08:41:05;;;;;;;;;4.33;4.33;;;;;;;;6334749;22;45284;-80
2023/04/04 08:43:33;;;;;;;;;5.00;5.00;;;;;;;;6334873;22;45417;-80
2023/04/04 08:45:58;;;;;;;;;11.00;6.00;;;;;;;;6336683;22;46161;-79
2023/04/04 08:48:25;;;;;;;;;9.00;6.00;;;;;;;;6336454;22;45331;-81
2023/04/04 08:50:52;;;;;;;;;8.75;5.75;;;;;;;;6337247;22;45284;-80
2023/04/04 08:53:18;;;;;;;;;9.75;5.75;;;;;;;;6336462;22;45334;-81
2023/04/04 08:55:43;;;;;;;;;8.00;4.00;;;;;;;;6336481;22;46217;-82
2023/04/04 08:58:09;;;;;;;;;8.00;6.00;;;;;;;;6335158;22;45352;-80
2023/04/04 09:00:34;;;;;;;;;6.67;5.00;;;;;;;;6334300;22;45240;-80
2023/04/04 09:03:13;;;;;;;;;4.75;4.00;;;;;;;;6334197;22;45441;-81
2023/04/04 09:05:39;;;;;;;;;7.00;4.75;;;;;;;;6334475;22;46263;-80
2023/04/04 09:08:07;;;;;;;;;6.00;2.50;;;;;;;;6334131;22;45272;-81
2023/04/04 09:10:33;;;;;;;;;5.50;4.00;;;;;;;;6331889;22;45304;-80
2023/04/04 09:12:59;;;;;;;;;3.50;2.00;;;;;;;;6333640;22;45279;-81
2023/04/04 09:15:24;;;;;;;;;3.50;3.50;;;;;;;;6334634;22;46053;-81
2023/04/04 09:17:49;;;;;;;;;5.00;4.00;;;;;;;;6336625;22;45446;-81
2023/04/04 09:20:34;;;;;;;;;5.00;4.00;;;;;;;;6336866;22;45252;-81
2023/04/04 09:23:00;;;;;;;;;5.00;2.50;;;;;;;;6336291;22;45282;-81
2023/04/04 09:25:25;;;;;;;;;4.25;4.25;;;;;;;;6335618;22;45544;-81
2023/04/04 09:27:52;;;;;;;;;4.33;4.33;;;;;;;;6336250;22;45155;-81
2023/04/04 09:30:17;;;;;;;;;5.50;5.00;;;;;;;;6336133;22;45387;-81
2023/04/04 09:32:43;;;;;;;;;8.00;4.00;;;;;;;;6336383;22;45198;-81
2023/04/04 09:35:09;;;;;;;;;8.75;2.00;;;;;;;;6336397;22;45339;-81
2023/04/04 09:37:35;;;;;;;;;8.25;5.00;;;;;;;;6335780;22;45779;-80
2023/04/04 09:40:02;;;;;;;;;4.00;2.00;;;;;;;;6335307;22;45415;-81
2023/04/04 09:42:27;;;;;;;;;4.00;4.00;;;;;;;;6336702;22;45414;-80
2023/04/04 09:44:53;;;;;;;;;8.00;6.00;;;;;;;;6335456;22;45279;-81
2023/04/04 09:47:22;;;;;;;;;9.00;3.50;;;;;;;;6335845;22;45375;-81
2023/04/04 09:49:48;;;;;;;;;5.00;4.50;;;;;;;;6336107;22;45343;-81
2023/04/04 09:52:16;;;;;;;;;4.00;3.50;;;;;;;;6335621;22;45321;-81
2023/04/04 09:54:42;;;;;;;;;5.75;2.00;;;;;;;;6334181;22;48129;-81
2023/04/04 09:57:07;;;;;;;;;5.00;2.00;;;;;;;;6336361;22;45316;-81
2023/04/04 09:59:33;;;;;;;;;4.75;2.00;;;;;;;;6336351;22;45347;-81
2023/04/04 10:02:01;;;;;;;;;3.00;3.00;;;;;;;;6336218;22;45393;-81
2023/04/04 10:04:27;;;;;;;;;3.25;2.00;;;;;;;;6335780;22;45377;-80
2023/04/04 10:06:52;;;;;;;;;5.25;3.25;;;;;;;;6335785;22;45832;-80
2023/04/04 10:09:18;;;;;;;;;1.25;0.75;;;;;;;;6336138;22;45243;-81
2023/04/04 10:11:44;;;;;;;;;6.25;4.75;;;;;;;;6335234;22;45359;-80
2023/04/04 10:14:09;;;;;;;;;2.50;2.50;;;;;;;;6335879;22;46788;-80
2023/04/04 10:16:36;;;;;;;;;2.00;2.00;;;;;;;;6335739;22;45289;-81
2023/04/04 10:19:02;;;;;;;;;2.00;2.00;;;;;;;;6336227;22;45339;-81
2023/04/04 10:21:27;;;;;;;;;6.00;2.00;;;;;;;;6335248;22;45302;-81
2023/04/04 10:23:53;;;;;;;;;1.00;1.00;;;;;;;;6334963;22;46123;-83
2023/04/04 10:26:18;;;;;;;;;5.67;2.00;;;;;;;;6336436;22;45271;-82
2023/04/04 10:28:44;;;;;;;;;1.00;1.00;;;;;;;;6335407;22;45422;-83
2023/04/04 10:31:18;;;;;;;;;6.25;2.25;;;;;;;;6338243;22;45200;-82
2023/04/04 10:33:58;;;;;;;;;5.25;3.00;;;;;;;;6335478;22;45315;-82
2023/04/04 10:36:26;;;;;;;;;2.00;2.00;;;;;;;;6335108;22;45272;-82
2023/04/04 10:39:03;;;;;;;;;3.00;2.75;;;;;;;;6334884;22;45390;-82
2023/04/04 10:41:30;;;;;;;;;9.25;2.75;;;;;;;;6336061;22;45263;-83
2023/04/04 10:43:59;;;;;;;;;2.00;2.00;;;;;;;;6336118;22;45450;-83
2023/04/04 10:46:29;;;;;;;;;2.00;2.00;;;;;;;;6335763;22;45379;-83
2023/04/04 10:48:55;;;;;;;;;3.50;2.00;;;;;;;;6336497;22;45249;-83
2023/04/04 10:51:21;;;;;;;;;5.00;2.00;;;;;;;;6335221;22;45396;-83
2023/04/04 10:53:46;;;;;;;;;6.00;4.50;;;;;;;;6335230;22;45571;-82
2023/04/04 10:56:12;;;;;;;;;5.25;2.25;;;;;;;;6333757;22;45355;-82
2023/04/04 10:58:40;;;;;;;;;2.00;2.00;;;;;;;;6335449;22;45331;-81
2023/04/04 11:01:06;;;;;;;;;2.00;2.00;;;;;;;;6335238;22;45354;-81
2023/04/04 11:03:32;;;;;;;;;2.25;2.00;;;;;;;;6335792;22;46578;-81
2023/04/04 11:06:00;;;;;;;;;2.75;2.00;;;;;;;;6335015;22;45168;-80
2023/04/04 11:08:27;;;;;;;;;5.00;2.00;;;;;;;;6336138;22;45284;-80
2023/04/04 11:10:53;;;;;;;;;5.00;2.75;;;;;;;;6335527;22;45333;-81
2023/04/04 11:13:22;;;;;;;;;7.00;2.75;;;;;;;;6336001;22;45435;-80
2023/04/04 11:16:12;;;;;;;;;2.00;2.00;;;;;;;;6336058;22;45402;-80
2023/04/04 11:18:37;;;;;;;;;2.00;2.00;;;;;;;;6334257;22;45313;-81
2023/04/04 11:21:05;;;;;;;;;2.00;2.00;;;;;;;;6333943;22;45440;-82
2023/04/04 11:23:46;;;;;;;;;1.00;1.00;;;;;;;;6335932;22;45351;-80
2023/04/04 11:26:12;;;;;;;;;2.50;2.00;;;;;;;;6335544;22;45769;-82
2023/04/04 11:28:37;;;;;;;;;7.50;2.75;;;;;;;;6335864;22;45314;-83
2023/04/04 11:31:18;;;;;;;;;5.25;2.00;;;;;;;;6335182;22;45403;-83
2023/04/04 11:33:54;;;;;;;;;2.50;2.50;;;;;;;;6335003;22;46123;-84
2023/04/04 11:36:23;;;;;;;;;3.25;3.00;;;;;;;;6334845;22;45233;-84
2023/04/04 11:38:49;;;;;;;;;3.00;3.00;;;;;;;;6334312;22;45333;-83
2023/04/04 11:41:14;;;;;;;;;4.00;2.00;;;;;;;;6335333;22;45399;-84
2023/04/04 11:43:44;;;;;;;;;3.33;2.00;;;;;;;;6334201;22;45295;-82
2023/04/04 11:46:09;;;;;;;;;4.25;3.00;;;;;;;;6335160;22;45511;-83
2023/04/04 11:48:35;;;;;;;;;2.00;2.00;;;;;;;;6335526;22;45297;-82
2023/04/04 11:51:01;;;;;;;;;4.00;3.00;;;;;;;;6335293;22;45235;-83
2023/04/04 11:53:29;;;;;;;;;2.25;2.25;;;;;;;;6335160;22;46142;-81
2023/04/04 11:55:55;;;;;;;;;3.50;2.75;;;;;;;;6335628;22;45315;-81
2023/04/04 11:58:20;;;;;;;;;3.75;3.25;;;;;;;;6335524;22;45286;-82
2023/04/04 12:00:46;;;;;;;;;3.00;3.00;;;;;;;;6335147;22;45368;-82
2023/04/04 12:03:13;;;;;;;;;3.25;2.75;;;;;;;;6335426;22;46104;-79
2023/04/04 12:05:40;;;;;;;;;3.25;3.25;;;;;;;;6334541;22;45168;-82
2023/04/04 12:08:06;;;;;;;;;4.50;3.00;;;;;;;;6334713;22;45450;-81
2023/04/04 12:10:35;;;;;;;;;3.00;3.00;;;;;;;;6335230;22;45361;-82
2023/04/04 12:13:01;;;;;;;;;3.00;2.00;;;;;;;;6335141;22;45299;-82
2023/04/04 12:15:28;;;;;;;;;6.25;4.00;;;;;;;;6335691;22;45342;-82
2023/04/04 12:17:53;;;;;;;;;2.25;2.00;;;;;;;;6335321;22;45287;-82
2023/04/04 12:20:21;;;;;;;;;2.00;1.00;;;;;;;;6334816;22;45326;-82
2023/04/04 12:22:53;;;;;;;;;2.50;2.50;;;;;;;;6334944;22;46321;-81
2023/04/04 12:25:22;;;;;;;;;2.25;2.25;;;;;;;;6335197;22;45244;-81
2023/04/04 12:27:48;;;;;;;;;3.25;1.75;;;;;;;;6335054;22;45318;-82
2023/04/04 12:30:14;;;;;;;;;3.00;2.00;;;;;;;;6335361;22;45298;-81
2023/04/04 12:32:49;;;;;;;;;2.00;2.00;;;;;;;;6334090;22;46332;-82
2023/04/04 12:35:14;;;;;;;;;4.75;3.00;;;;;;;;6335048;22;45339;-81
2023/04/04 12:37:56;;;;;;;;;4.50;3.00;;;;;;;;6334699;22;45250;-83
2023/04/04 12:40:21;;;;;;;;;6.00;3.00;;;;;;;;6334491;22;45567;-82
2023/04/04 12:42:47;;;;;;;;;2.00;2.00;;;;;;;;6334698;22;46492;-81
2023/04/04 12:45:12;;;;;;;;;4.00;2.00;;;;;;;;6334447;22;45270;-82
2023/04/04 12:47:38;;;;;;;;;4.75;3.50;;;;;;;;6334470;22;45273;-82
2023/04/04 12:50:07;;;;;;;;;5.00;4.00;;;;;;;;6335094;22;45267;-82
2023/04/04 12:52:33;;;;;;;;;3.00;3.00;;;;;;;;6336031;22;46478;-82
2023/04/04 12:55:05;;;;;;;;;2.00;2.00;;;;;;;;6336021;22;45803;-82
2023/04/04 12:57:30;;;;;;;;;5.00;2.25;;;;;;;;6336399;22;45287;-82
2023/04/04 12:59:55;;;;;;;;;2.25;2.25;;;;;;;;6336397;22;45310;-82
2023/04/04 13:02:21;;;;;;;;;2.00;2.00;;;;;;;;6334825;22;45535;-82
2023/04/04 13:04:49;;;;;;;;;3.00;2.25;;;;;;;;6335846;22;45871;-81
2023/04/04 13:07:26;;;;;;;;;1.25;1.25;;;;;;;;6336442;22;45350;-82
2023/04/04 13:10:04;;;;;;;;;2.00;2.00;;;;;;;;6336662;22;45404;-80
2023/04/04 13:12:59;;;;;;;;;2.00;2.00;;;;;;;;6336306;22;45581;-82
2023/04/04 13:15:43;;;;;;;;;2.00;1.75;;;;;;;;6308681;22;45771;-81
2023/04/04 13:18:36;;;;;;;;;2.00;2.00;;;;;;;;6335796;22;45300;-82
2023/04/04 13:21:02;;;;;;;;;1.50;1.50;;;;;;;;6331563;22;45485;-82
2023/04/04 13:23:27;;;;;;;;;5.75;2.75;;;;;;;;6336457;22;46978;-82
2023/04/04 13:25:52;;;;;;;;;1.00;1.00;;;;;;;;6336762;22;45299;-83
2023/04/04 13:28:18;;;;;;;;;2.33;2.00;;;;;;;;6337003;22;45351;-82
2023/04/04 13:30:47;;;;;;;;;5.00;2.00;;;;;;;;6336667;22;45370;-82
2023/04/04 13:33:12;;;;;;;;;3.00;2.00;;;;;;;;6335944;22;47148;-84
2023/04/04 13:35:38;;;;;;;;;6.00;3.00;;;;;;;;6332231;22;45323;-83
2023/04/04 13:38:03;;;;;;;;;2.00;2.00;;;;;;;;6335902;22;45529;-82
2023/04/04 13:40:28;;;;;;;;;3.00;2.00;;;;;;;;6336083;22;45299;-82
2023/04/04 13:42:53;;;;;;;;;0.00;0.00;;;;;;;;6336213;22;46146;-81
2023/04/04 13:45:18;;;;;;;;;3.00;2.33;;;;;;;;6336653;22;45321;-82
2023/04/04 13:47:44;;;;;;;;;5.00;2.00;;;;;;;;6337081;22;45209;-83
2023/04/04 13:50:10;;;;;;;;;5.25;2.00;;;;;;;;6335845;22;45215;-81
2023/04/04 13:52:35;;;;;;;;;1.25;1.25;;;;;;;;6336061;22;45287;-82
2023/04/04 13:55:05;;;;;;;;;1.50;1.50;;;;;;;;6337620;22;45149;-81
2023/04/04 13:57:31;;;;;;;;;4.50;2.75;;;;;;;;6338767;22;45608;-80
2023/04/04 13:59:56;;;;;;;;;4.75;2.00;;;;;;;;6336817;22;45336;-82
2023/04/04 14:02:22;;;;;;;;;3.67;2.00;;;;;;;;6335689;22;46175;-81
2023/04/04 14:04:47;;;;;;;;;1.00;1.00;;;;;;;;6335060;22;45335;-82
2023/04/04 14:07:12;;;;;;;;;3.00;1.00;;;;;;;;6336354;22;45426;-82
2023/04/04 14:09:37;;;;;;;;;2.00;2.00;;;;;;;;6336006;22;45204;-82
2023/04/04 14:12:03;;;;;;;;;2.75;2.75;;;;;;;;6335755;22;46347;-82
2023/04/04 14:14:28;;;;;;;;;2.75;0.75;;;;;;;;6335905;22;45302;-82
2023/04/04 14:16:53;;;;;;;;;2.00;2.00;;;;;;;;6336427;22;45331;-82
2023/04/04 14:19:18;;;;;;;;;1.67;1.33;;;;;;;;6336138;22;45421;-82
2023/04/04 14:21:44;;;;;;;;;3.00;3.00;;;;;;;;6335947;22;45748;-82
2023/04/04 14:24:09;;;;;;;;;2.00;2.00;;;;;;;;6336133;22;45172;-82
2023/04/04 14:26:36;;;;;;;;;3.25;2.00;;;;;;;;6335596;22;45622;-83
2023/04/04 14:29:02;;;;;;;;;2.00;2.00;;;;;;;;6334839;22;45414;-83
2023/04/04 14:31:27;;;;;;;;;1.75;1.75;;;;;;;;6335822;22;45250;-82
2023/04/04 14:33:52;;;;;;;;;3.50;3.00;;;;;;;;6335566;22;45383;-82
2023/04/04 14:36:20;;;;;;;;;3.00;3.00;;;;;;;;6336108;22;45286;-82
2023/04/04 14:38:46;;;;;;;;;3.75;2.00;;;;;;;;6335600;22;45279;-82
2023/04/04 14:41:12;;;;;;;;;2.00;2.00;;;;;;;;6335237;22;46006;-82